Time;durP1;ratioP1;P1;durP2;ratioP2;P2;SDS_P1;SDS_P2;PMS_P1;PMS_P2;Temp;Humidity;BMP_temperature;BMP_pressure;BME280_temperature;BME280_humidity;BME280_pressure;Samples;Min_cycle;Max_cycle;Signal;HPM_P1;HPM_P2
2021/05/24 00:02:18;;;;;;;1.50;1.08;;;;;;;;;;5061357;28;20265;-82
2021/05/24 00:04:44;;;;;;;2.58;0.90;;;;;;;;;;5060928;28;20170;-81
2021/05/24 00:07:10;;;;;;;1.60;0.80;;;;;;;;;;5062444;28;20182;-80
2021/05/24 00:09:37;;;;;;;1.05;0.90;;;;;;;;;;5060380;28;20210;-81
2021/05/24 00:12:04;;;;;;;2.22;1.00;;;;;;;;;;5065299;28;20187;-79
2021/05/24 00:14:32;;;;;;;1.48;1.38;;;;;;;;;;5080305;28;20181;-80
2021/05/24 00:16:58;;;;;;;1.15;0.80;;;;;;;;;;5075668;28;20422;-79
2021/05/24 00:19:23;;;;;;;0.70;0.70;;;;;;;;;;5065232;28;20284;-81
2021/05/24 00:21:49;;;;;;;3.10;1.00;;;;;;;;;;5059617;28;20526;-81
2021/05/24 00:24:15;;;;;;;3.35;0.90;;;;;;;;;;5061446;28;20439;-81
2021/05/24 00:26:42;;;;;;;3.97;1.05;;;;;;;;;;5064609;28;20240;-81
2021/05/24 00:29:14;;;;;;;0.90;0.80;;;;;;;;;;5060217;28;20196;-81
2021/05/24 00:31:40;;;;;;;2.97;1.23;;;;;;;;;;5062081;28;20218;-80
2021/05/24 00:34:06;;;;;;;2.30;1.10;;;;;;;;;;5065511;28;20188;-77
2021/05/24 00:36:32;;;;;;;2.07;0.90;;;;;;;;;;5060158;28;20194;-79
2021/05/24 00:38:58;;;;;;;1.23;0.85;;;;;;;;;;5078857;28;20459;-80
2021/05/24 00:41:24;;;;;;;2.30;0.90;;;;;;;;;;5061206;28;20255;-81
2021/05/24 00:43:52;;;;;;;3.45;0.88;;;;;;;;;;5075255;28;20486;-79
2021/05/24 00:46:18;;;;;;;3.08;0.90;;;;;;;;;;5065819;28;20173;-79
2021/05/24 00:48:44;;;;;;;2.17;0.80;;;;;;;;;;5065375;28;20185;-79
2021/05/24 00:51:10;;;;;;;1.53;0.87;;;;;;;;;;5079961;28;20921;-80
2021/05/24 00:53:36;;;;;;;1.83;0.93;;;;;;;;;;5080089;28;20462;-79
2021/05/24 00:56:02;;;;;;;2.40;1.20;;;;;;;;;;5075398;28;20193;-80
2021/05/24 00:58:28;;;;;;;2.15;0.95;;;;;;;;;;5060331;28;20459;-79
2021/05/24 01:00:54;;;;;;;2.85;1.15;;;;;;;;;;5059310;28;20192;-82
2021/05/24 01:03:20;;;;;;;2.55;0.90;;;;;;;;;;5059859;28;20644;-81
2021/05/24 01:05:46;;;;;;;2.35;0.95;;;;;;;;;;5063965;28;20336;-82
2021/05/24 01:08:13;;;;;;;2.75;1.17;;;;;;;;;;5074318;28;20180;-80
2021/05/24 01:10:40;;;;;;;1.30;0.70;;;;;;;;;;5064186;28;20270;-82
2021/05/24 01:13:07;;;;;;;4.20;0.90;;;;;;;;;;5074489;28;20181;-81
2021/05/24 01:15:34;;;;;;;2.25;0.80;;;;;;;;;;5059265;28;20719;-82
2021/05/24 01:18:00;;;;;;;4.15;1.02;;;;;;;;;;5062765;28;20615;-82
2021/05/24 01:20:27;;;;;;;2.47;1.40;;;;;;;;;;5061361;28;20195;-82
2021/05/24 01:23:08;;;;;;;1.48;0.98;;;;;;;;;;5058428;28;20192;-81
2021/05/24 01:25:40;;;;;;;1.92;0.80;;;;;;;;;;5065119;28;20169;-82
2021/05/24 01:28:07;;;;;;;3.30;1.05;;;;;;;;;;5074761;28;20537;-82
2021/05/24 01:30:34;;;;;;;1.83;0.98;;;;;;;;;;5064314;28;20185;-82
2021/05/24 01:33:00;;;;;;;1.60;0.82;;;;;;;;;;5061824;28;20181;-81
2021/05/24 01:35:26;;;;;;;0.80;0.80;;;;;;;;;;5061031;28;20192;-82
2021/05/24 01:37:52;;;;;;;1.13;1.02;;;;;;;;;;5059177;28;20181;-80
2021/05/24 01:40:20;;;;;;;3.22;0.93;;;;;;;;;;5063545;28;20196;-80
2021/05/24 01:42:45;;;;;;;1.95;1.15;;;;;;;;;;5058406;28;20542;-81
2021/05/24 01:45:12;;;;;;;1.52;0.98;;;;;;;;;;5060009;28;20182;-79
2021/05/24 01:47:38;;;;;;;5.15;1.10;;;;;;;;;;5062885;28;20196;-82
2021/05/24 01:50:04;;;;;;;1.70;1.23;;;;;;;;;;5073639;28;20219;-80
2021/05/24 01:52:30;;;;;;;1.60;0.98;;;;;;;;;;5059243;28;20419;-80
2021/05/24 01:54:56;;;;;;;3.22;1.08;;;;;;;;;;5058236;28;20203;-80
2021/05/24 01:57:22;;;;;;;2.80;1.00;;;;;;;;;;5058696;28;20206;-81
2021/05/24 01:59:48;;;;;;;3.85;2.22;;;;;;;;;;5063149;28;20917;-84
2021/05/24 02:02:16;;;;;;;1.85;0.95;;;;;;;;;;5073655;28;20196;-80
2021/05/24 02:04:42;;;;;;;2.72;1.55;;;;;;;;;;5064395;28;20165;-78
2021/05/24 02:07:08;;;;;;;1.20;0.82;;;;;;;;;;5059480;28;20621;-81
2021/05/24 02:09:35;;;;;;;6.40;1.30;;;;;;;;;;5063729;28;20219;-80
2021/05/24 02:12:01;;;;;;;0.90;0.70;;;;;;;;;;5056619;28;20447;-81
2021/05/24 02:14:27;;;;;;;1.80;0.93;;;;;;;;;;5060653;28;20192;-81
2021/05/24 02:16:54;;;;;;;2.15;1.05;;;;;;;;;;5073759;28;20169;-80
2021/05/24 02:19:20;;;;;;;2.38;1.10;;;;;;;;;;5062844;28;20690;-80
2021/05/24 02:21:46;;;;;;;1.35;0.80;;;;;;;;;;5057508;28;20627;-81
2021/05/24 02:24:13;;;;;;;2.97;0.80;;;;;;;;;;5058978;28;20280;-79
2021/05/24 02:26:41;;;;;;;1.45;0.90;;;;;;;;;;5074489;28;20177;-81
2021/05/24 02:29:07;;;;;;;2.25;1.10;;;;;;;;;;5076744;28;20177;-82
2021/05/24 02:31:34;;;;;;;4.88;1.00;;;;;;;;;;5065540;28;20619;-82
2021/05/24 02:34:00;;;;;;;2.42;1.00;;;;;;;;;;5077243;28;20195;-82
2021/05/24 02:36:27;;;;;;;2.15;1.00;;;;;;;;;;5058492;28;20211;-80
2021/05/24 02:38:54;;;;;;;2.45;1.00;;;;;;;;;;5077191;28;20224;-80
2021/05/24 02:41:20;;;;;;;1.50;0.90;;;;;;;;;;5061105;28;20195;-79
2021/05/24 02:43:46;;;;;;;1.63;0.85;;;;;;;;;;5063401;28;20165;-80
2021/05/24 02:46:12;;;;;;;1.80;1.00;;;;;;;;;;5055004;28;20176;-80
2021/05/24 02:48:38;;;;;;;1.35;0.90;;;;;;;;;;5062670;28;20173;-79
2021/05/24 02:51:05;;;;;;;3.08;1.05;;;;;;;;;;5059564;28;20198;-82
2021/05/24 02:53:31;;;;;;;1.23;1.00;;;;;;;;;;5073188;28;20185;-80
2021/05/24 02:55:57;;;;;;;4.60;1.10;;;;;;;;;;5060542;28;20181;-81
2021/05/24 02:58:23;;;;;;;3.83;1.20;;;;;;;;;;5067256;28;20209;-80
2021/05/24 03:00:49;;;;;;;2.67;2.40;;;;;;;;;;5058016;28;20431;-81
2021/05/24 03:03:15;;;;;;;2.58;0.90;;;;;;;;;;5058361;28;20462;-77
2021/05/24 03:05:41;;;;;;;1.77;0.82;;;;;;;;;;5062608;28;20184;-85
2021/05/24 03:08:07;;;;;;;1.92;1.40;;;;;;;;;;5062730;28;20244;-82
2021/05/24 03:10:33;;;;;;;2.47;1.20;;;;;;;;;;5063835;28;20224;-81
2021/05/24 03:12:59;;;;;;;1.35;1.05;;;;;;;;;;5057042;28;20192;-83
2021/05/24 03:15:25;;;;;;;1.42;1.33;;;;;;;;;;5057436;28;20190;-82
2021/05/24 03:17:52;;;;;;;5.55;1.20;;;;;;;;;;5060316;28;20295;-82
2021/05/24 03:20:18;;;;;;;1.58;1.05;;;;;;;;;;5076052;28;20185;-86
2021/05/24 03:22:45;;;;;;;1.38;0.98;;;;;;;;;;5062671;28;20180;-81
2021/05/24 03:25:12;;;;;;;1.75;0.93;;;;;;;;;;5060919;28;20184;-85
2021/05/24 03:27:38;;;;;;;1.40;0.85;;;;;;;;;;5059136;28;20181;-85
2021/05/24 03:30:05;;;;;;;2.65;0.90;;;;;;;;;;5059917;28;20248;-84
2021/05/24 03:32:31;;;;;;;3.05;2.03;;;;;;;;;;5073153;28;20181;-84
2021/05/24 03:34:57;;;;;;;1.55;1.15;;;;;;;;;;5062541;28;20173;-83
2021/05/24 03:37:23;;;;;;;3.72;1.40;;;;;;;;;;5062034;28;20284;-84
2021/05/24 03:39:49;;;;;;;1.45;0.90;;;;;;;;;;5055456;28;20257;-83
2021/05/24 03:42:15;;;;;;;1.63;1.20;;;;;;;;;;5058446;28;20196;-84
2021/05/24 03:44:45;;;;;;;2.42;1.25;;;;;;;;;;5062475;28;20839;-83
2021/05/24 03:47:12;;;;;;;3.30;1.20;;;;;;;;;;5057737;28;20245;-81
2021/05/24 03:49:38;;;;;;;3.75;2.10;;;;;;;;;;5064697;28;20204;-80
2021/05/24 03:52:04;;;;;;;1.35;1.25;;;;;;;;;;5072596;28;20200;-81
2021/05/24 03:54:30;;;;;;;2.75;1.00;;;;;;;;;;5056835;28;20189;-82
2021/05/24 03:56:57;;;;;;;8.13;1.50;;;;;;;;;;5060752;28;20184;-83
2021/05/24 03:59:23;;;;;;;1.83;1.15;;;;;;;;;;5082552;28;20273;-84
2021/05/24 04:01:50;;;;;;;3.88;1.25;;;;;;;;;;5062514;28;20173;-84
2021/05/24 04:04:16;;;;;;;1.63;1.10;;;;;;;;;;5058581;28;20177;-83
2021/05/24 04:06:44;;;;;;;2.60;1.33;;;;;;;;;;5062253;28;20182;-84
2021/05/24 04:09:10;;;;;;;2.20;1.20;;;;;;;;;;5062032;28;20184;-83
2021/05/24 04:11:36;;;;;;;5.18;1.30;;;;;;;;;;5065728;28;20217;-82
2021/05/24 04:14:02;;;;;;;3.00;1.40;;;;;;;;;;5075353;28;20227;-84
2021/05/24 04:16:28;;;;;;;2.42;1.25;;;;;;;;;;5065747;28;20427;-85
2021/05/24 04:18:54;;;;;;;2.63;1.40;;;;;;;;;;5061439;28;20201;-82
2021/05/24 04:21:20;;;;;;;2.05;1.00;;;;;;;;;;5061354;28;20185;-82
2021/05/24 04:23:46;;;;;;;10.57;1.40;;;;;;;;;;5061061;28;20557;-84
2021/05/24 04:26:14;;;;;;;1.13;1.00;;;;;;;;;;5060833;28;20188;-82
2021/05/24 04:28:40;;;;;;;4.43;1.35;;;;;;;;;;5061314;28;20261;-85
2021/05/24 04:31:06;;;;;;;4.10;1.90;;;;;;;;;;5060746;28;20662;-85
2021/05/24 04:33:32;;;;;;;1.30;1.20;;;;;;;;;;5059652;28;20208;-82
2021/05/24 04:35:58;;;;;;;5.13;1.50;;;;;;;;;;5065443;28;20248;-86
2021/05/24 04:38:24;;;;;;;5.28;1.20;;;;;;;;;;5080888;28;20205;-86
2021/05/24 04:40:50;;;;;;;1.30;1.20;;;;;;;;;;5065739;28;20227;-86
2021/05/24 04:43:16;;;;;;;2.42;1.60;;;;;;;;;;5064668;28;20180;-85
2021/05/24 04:45:42;;;;;;;1.10;1.00;;;;;;;;;;5064962;28;20185;-84
2021/05/24 04:48:09;;;;;;;1.17;1.00;;;;;;;;;;5062051;28;20211;-84
2021/05/24 04:50:35;;;;;;;1.02;0.93;;;;;;;;;;5075647;28;20191;-84
2021/05/24 04:53:01;;;;;;;2.28;1.48;;;;;;;;;;5065200;28;20192;-84
2021/05/24 04:55:27;;;;;;;2.65;1.10;;;;;;;;;;5064816;28;20621;-84
2021/05/24 04:57:53;;;;;;;2.65;1.75;;;;;;;;;;5059851;28;20208;-86
2021/05/24 05:00:19;;;;;;;3.25;1.10;;;;;;;;;;5075226;28;20185;-84
2021/05/24 05:02:45;;;;;;;1.52;1.08;;;;;;;;;;5064538;28;20181;-83
2021/05/24 05:05:12;;;;;;;6.80;1.80;;;;;;;;;;5074548;28;20184;-84
2021/05/24 05:07:38;;;;;;;1.25;1.02;;;;;;;;;;5076847;28;20655;-82
2021/05/24 05:10:04;;;;;;;1.90;1.00;;;;;;;;;;5059307;28;20221;-84
2021/05/24 05:12:31;;;;;;;1.77;1.00;;;;;;;;;;5060534;28;20264;-85
2021/05/24 05:14:59;;;;;;;1.45;1.05;;;;;;;;;;5062258;28;20189;-85
2021/05/24 05:17:25;;;;;;;4.28;1.45;;;;;;;;;;5073804;28;20182;-82
2021/05/24 05:19:51;;;;;;;0.85;0.85;;;;;;;;;;5064633;28;20176;-85
2021/05/24 05:22:17;;;;;;;6.57;1.13;;;;;;;;;;5063672;28;20627;-85
2021/05/24 05:24:43;;;;;;;1.40;1.10;;;;;;;;;;5060440;28;20177;-84
2021/05/24 05:27:09;;;;;;;2.90;1.80;;;;;;;;;;5061143;28;20188;-84
2021/05/24 05:29:35;;;;;;;3.00;1.23;;;;;;;;;;5062207;28;20197;-85
2021/05/24 05:32:01;;;;;;;1.88;1.00;;;;;;;;;;5058851;28;20178;-84
2021/05/24 05:34:27;;;;;;;3.38;1.20;;;;;;;;;;5063908;28;20181;-84
2021/05/24 05:36:53;;;;;;;1.40;1.08;;;;;;;;;;5054379;28;20185;-83
2021/05/24 05:39:19;;;;;;;2.75;1.08;;;;;;;;;;5059249;28;20228;-83
2021/05/24 05:41:46;;;;;;;1.70;1.30;;;;;;;;;;5061306;28;20185;-86
2021/05/24 05:44:12;;;;;;;1.90;1.45;;;;;;;;;;5063740;28;20181;-86
2021/05/24 05:46:38;;;;;;;1.05;1.00;;;;;;;;;;5059261;28;20161;-84
2021/05/24 05:49:04;;;;;;;2.00;1.30;;;;;;;;;;5058587;28;20192;-85
2021/05/24 05:51:31;;;;;;;4.65;1.10;;;;;;;;;;5058115;28;20190;-85
2021/05/24 05:53:57;;;;;;;2.25;1.27;;;;;;;;;;5057970;28;20181;-84
2021/05/24 05:56:23;;;;;;;3.38;1.58;;;;;;;;;;5073260;28;20194;-85
2021/05/24 05:58:49;;;;;;;2.25;1.00;;;;;;;;;;5062394;28;20412;-84
2021/05/24 06:01:15;;;;;;;2.42;1.27;;;;;;;;;;5063243;28;20177;-84
2021/05/24 06:03:41;;;;;;;1.17;1.00;;;;;;;;;;5063979;28;20188;-84
2021/05/24 06:06:07;;;;;;;1.50;1.10;;;;;;;;;;5075337;28;20185;-83
2021/05/24 06:08:33;;;;;;;2.63;1.35;;;;;;;;;;5061828;28;20431;-84
2021/05/24 06:10:59;;;;;;;2.05;1.42;;;;;;;;;;5057937;28;20221;-84
2021/05/24 06:13:26;;;;;;;1.48;1.05;;;;;;;;;;5058988;28;20188;-83
2021/05/24 06:15:52;;;;;;;2.05;1.20;;;;;;;;;;5058089;28;20230;-82
2021/05/24 06:18:18;;;;;;;2.08;1.23;;;;;;;;;;5058977;28;20202;-84
2021/05/24 06:20:46;;;;;;;3.72;1.30;;;;;;;;;;5071783;28;20539;-84
2021/05/24 06:23:12;;;;;;;1.95;1.35;;;;;;;;;;5063674;28;20655;-84
2021/05/24 06:25:39;;;;;;;2.17;1.45;;;;;;;;;;5060684;28;20178;-85
2021/05/24 06:28:05;;;;;;;5.57;1.30;;;;;;;;;;5057611;28;20208;-83
2021/05/24 06:30:31;;;;;;;2.83;1.00;;;;;;;;;;5058808;28;20189;-85
2021/05/24 06:32:57;;;;;;;1.90;1.40;;;;;;;;;;5057759;28;20220;-84
2021/05/24 06:35:23;;;;;;;2.15;1.00;;;;;;;;;;5059346;28;20185;-85
2021/05/24 06:37:49;;;;;;;1.60;1.00;;;;;;;;;;5063434;28;20197;-83
2021/05/24 06:40:15;;;;;;;1.55;1.45;;;;;;;;;;5056591;28;20248;-84
2021/05/24 06:42:42;;;;;;;2.42;1.35;;;;;;;;;;5058722;28;20196;-83
2021/05/24 06:45:09;;;;;;;1.25;1.00;;;;;;;;;;5059681;28;20178;-83
2021/05/24 06:47:36;;;;;;;1.52;1.30;;;;;;;;;;5061291;28;20636;-84
2021/05/24 06:50:03;;;;;;;1.70;1.08;;;;;;;;;;5057737;28;20516;-82
2021/05/24 06:52:29;;;;;;;2.70;1.00;;;;;;;;;;5062226;28;20184;-82
2021/05/24 06:54:55;;;;;;;1.30;0.90;;;;;;;;;;5057501;28;20185;-84
2021/05/24 06:57:21;;;;;;;1.55;1.40;;;;;;;;;;5057668;28;20921;-82
2021/05/24 06:59:47;;;;;;;1.10;1.00;;;;;;;;;;5072222;28;20184;-83
2021/05/24 07:02:15;;;;;;;4.13;1.43;;;;;;;;;;5062981;28;20431;-83
2021/05/24 07:04:41;;;;;;;1.50;1.10;;;;;;;;;;5073766;28;20413;-83
2021/05/24 07:07:07;;;;;;;1.27;1.13;;;;;;;;;;5062897;28;20181;-84
2021/05/24 07:09:33;;;;;;;1.25;1.08;;;;;;;;;;5058576;28;20248;-81
2021/05/24 07:11:59;;;;;;;1.15;1.00;;;;;;;;;;5056614;28;20203;-84
2021/05/24 07:14:25;;;;;;;1.17;1.08;;;;;;;;;;5059399;28;20208;-82
2021/05/24 07:16:53;;;;;;;2.27;1.17;;;;;;;;;;5062786;28;20634;-82
2021/05/24 07:19:19;;;;;;;2.50;1.40;;;;;;;;;;5062266;28;20463;-83
2021/05/24 07:21:45;;;;;;;2.60;1.30;;;;;;;;;;5058199;28;20181;-81
2021/05/24 07:24:11;;;;;;;1.33;1.23;;;;;;;;;;5059056;28;20177;-82
2021/05/24 07:26:37;;;;;;;2.45;1.52;;;;;;;;;;5057775;28;20280;-82
2021/05/24 07:29:03;;;;;;;1.48;1.30;;;;;;;;;;5057196;28;20189;-83
2021/05/24 07:31:29;;;;;;;1.42;1.33;;;;;;;;;;5062022;28;20181;-82
2021/05/24 07:33:55;;;;;;;2.53;1.58;;;;;;;;;;5057684;28;20177;-83
2021/05/24 07:36:21;;;;;;;5.78;1.52;;;;;;;;;;5057410;28;20223;-83
2021/05/24 07:38:47;;;;;;;1.88;1.38;;;;;;;;;;5062126;28;20201;-81
2021/05/24 07:41:15;;;;;;;1.42;1.33;;;;;;;;;;5055709;28;20237;-81
2021/05/24 07:43:41;;;;;;;1.25;1.00;;;;;;;;;;5051082;28;20208;-82
2021/05/24 07:46:07;;;;;;;2.10;1.23;;;;;;;;;;5081418;28;20177;-82
2021/05/24 07:48:33;;;;;;;1.10;1.00;;;;;;;;;;5066090;28;20177;-80
2021/05/24 07:51:00;;;;;;;1.75;1.40;;;;;;;;;;5066131;28;20193;-82
2021/05/24 07:53:26;;;;;;;3.65;1.30;;;;;;;;;;5081787;28;20196;-84
2021/05/24 07:55:52;;;;;;;1.73;1.33;;;;;;;;;;5065635;28;20177;-80
2021/05/24 07:58:19;;;;;;;1.40;1.30;;;;;;;;;;5066828;28;20224;-81
2021/05/24 08:00:44;;;;;;;1.92;1.10;;;;;;;;;;5060394;28;20173;-81
2021/05/24 08:03:10;;;;;;;2.67;1.20;;;;;;;;;;5062023;28;20185;-86
2021/05/24 08:05:37;;;;;;;2.90;1.40;;;;;;;;;;5061606;28;20431;-82
2021/05/24 08:08:03;;;;;;;2.67;1.58;;;;;;;;;;5064755;28;20481;-82
2021/05/24 08:10:29;;;;;;;1.83;1.60;;;;;;;;;;5061419;28;20216;-82
2021/05/24 08:12:55;;;;;;;2.40;1.35;;;;;;;;;;5060282;28;20185;-82
2021/05/24 08:15:33;;;;;;;1.92;1.70;;;;;;;;;;5076055;28;20185;-81
2021/05/24 08:18:00;;;;;;;3.55;1.65;;;;;;;;;;5067433;28;20207;-81
2021/05/24 08:20:26;;;;;;;2.40;1.50;;;;;;;;;;5079789;28;20727;-83
2021/05/24 08:22:52;;;;;;;1.35;1.25;;;;;;;;;;5075675;28;20181;-85
2021/05/24 08:25:18;;;;;;;2.15;1.80;;;;;;;;;;5060622;28;20169;-85
2021/05/24 08:27:44;;;;;;;4.82;1.40;;;;;;;;;;5061456;28;20284;-85
2021/05/24 08:30:11;;;;;;;1.60;1.27;;;;;;;;;;5061481;28;20224;-81
2021/05/24 08:32:37;;;;;;;2.67;1.77;;;;;;;;;;5065615;28;20276;-82
2021/05/24 08:35:04;;;;;;;2.10;1.30;;;;;;;;;;5064494;28;20184;-84
2021/05/24 08:37:30;;;;;;;2.67;1.70;;;;;;;;;;5061386;28;20181;-84
2021/05/24 08:39:56;;;;;;;1.92;1.45;;;;;;;;;;5057769;28;20276;-81
2021/05/24 08:42:25;;;;;;;3.80;1.33;;;;;;;;;;5065156;28;20205;-85
2021/05/24 08:44:51;;;;;;;1.75;1.50;;;;;;;;;;5054249;28;20434;-87
2021/05/24 08:47:18;;;;;;;1.90;1.75;;;;;;;;;;5061043;28;20189;-83
2021/05/24 08:49:45;;;;;;;4.85;1.63;;;;;;;;;;5076175;28;20169;-86
2021/05/24 08:52:12;;;;;;;2.38;1.80;;;;;;;;;;5059389;28;20249;-84
2021/05/24 08:54:38;;;;;;;3.67;1.42;;;;;;;;;;5075379;28;20178;-86
2021/05/24 08:57:04;;;;;;;3.15;1.52;;;;;;;;;;5058402;28;20189;-86
2021/05/24 08:59:30;;;;;;;1.65;1.50;;;;;;;;;;5075216;28;20215;-86
2021/05/24 09:01:56;;;;;;;3.40;1.30;;;;;;;;;;5064071;28;20178;-87
2021/05/24 09:04:40;;;;;;;2.95;1.27;;;;;;;;;;5064277;28;20178;-85
2021/05/24 09:07:06;;;;;;;3.85;1.45;;;;;;;;;;5058603;28;20206;-85
2021/05/24 09:09:32;;;;;;;5.15;1.30;;;;;;;;;;5064503;28;20181;-82
2021/05/24 09:11:59;;;;;;;2.65;1.33;;;;;;;;;;5058697;28;20600;-86
2021/05/24 09:14:25;;;;;;;4.35;1.50;;;;;;;;;;5061849;28;20178;-82
2021/05/24 09:16:56;;;;;;;3.28;1.65;;;;;;;;;;5059314;28;20241;-83
2021/05/24 09:19:22;;;;;;;3.40;1.88;;;;;;;;;;5059970;28;20201;-84
2021/05/24 09:21:56;;;;;;;3.55;2.35;;;;;;;;;;5059997;28;20279;-85
2021/05/24 09:24:28;;;;;;;2.88;1.55;;;;;;;;;;5059663;28;20193;-84
2021/05/24 09:26:54;;;;;;;3.17;1.20;;;;;;;;;;5064686;28;20306;-84
2021/05/24 09:29:23;;;;;;;3.55;1.58;;;;;;;;;;5064837;28;20196;-84
2021/05/24 09:32:08;;;;;;;3.65;1.50;;;;;;;;;;5059250;28;20192;-84
2021/05/24 09:34:34;;;;;;;2.85;1.70;;;;;;;;;;5063898;28;20233;-83
2021/05/24 09:37:00;;;;;;;1.83;1.40;;;;;;;;;;5053747;28;20198;-86
2021/05/24 09:39:31;;;;;;;2.33;1.45;;;;;;;;;;5074008;28;20201;-84
2021/05/24 09:42:00;;;;;;;1.83;1.52;;;;;;;;;;5061950;28;20282;-85
2021/05/24 09:44:26;;;;;;;2.60;1.50;;;;;;;;;;5061369;28;20179;-84
2021/05/24 09:46:53;;;;;;;1.40;1.30;;;;;;;;;;5058472;28;20170;-84
2021/05/24 09:49:23;;;;;;;2.78;1.85;;;;;;;;;;5065122;28;20181;-83
2021/05/24 09:51:51;;;;;;;3.05;2.13;;;;;;;;;;5063363;28;20184;-85
2021/05/24 09:54:17;;;;;;;7.20;2.40;;;;;;;;;;5059749;28;20192;-85
2021/05/24 09:56:47;;;;;;;5.10;3.22;;;;;;;;;;5072310;28;20208;-83
2021/05/24 09:59:13;;;;;;;5.00;1.45;;;;;;;;;;5057981;28;20197;-84
2021/05/24 10:01:44;;;;;;;2.90;1.23;;;;;;;;;;5059509;28;20600;-84
2021/05/24 10:04:14;;;;;;;3.55;1.92;;;;;;;;;;5058701;28;20399;-84
2021/05/24 10:06:41;;;;;;;1.63;1.52;;;;;;;;;;5057164;28;20567;-84
2021/05/24 10:09:08;;;;;;;2.80;1.70;;;;;;;;;;5057215;28;20182;-85
2021/05/24 10:11:35;;;;;;;4.78;2.60;;;;;;;;;;5061346;28;20223;-84
2021/05/24 10:14:02;;;;;;;4.13;2.08;;;;;;;;;;5074033;28;20180;-83
2021/05/24 10:16:32;;;;;;;1.90;1.50;;;;;;;;;;5058968;28;20241;-84
2021/05/24 10:18:58;;;;;;;5.50;2.78;;;;;;;;;;5058112;28;20240;-85
2021/05/24 10:21:24;;;;;;;5.63;2.05;;;;;;;;;;5059378;28;20183;-85
2021/05/24 10:23:52;;;;;;;2.35;1.80;;;;;;;;;;5063026;28;20181;-87
2021/05/24 10:26:18;;;;;;;3.65;1.55;;;;;;;;;;5059217;28;20194;-87
2021/05/24 10:28:45;;;;;;;2.92;1.38;;;;;;;;;;5074062;28;20588;-86
2021/05/24 10:31:18;;;;;;;2.55;1.52;;;;;;;;;;5058376;28;20216;-85
2021/05/24 10:33:44;;;;;;;2.25;1.52;;;;;;;;;;5059106;28;20284;-85
2021/05/24 10:36:37;;;;;;;4.65;1.80;;;;;;;;;;5059426;28;20183;-85
2021/05/24 10:39:23;;;;;;;2.33;1.75;;;;;;;;;;5058062;28;20238;-86
2021/05/24 10:42:11;;;;;;;5.43;1.40;;;;;;;;;;5063516;28;20227;-85
2021/05/24 10:44:43;;;;;;;4.25;1.70;;;;;;;;;;5063371;28;20537;-85
2021/05/24 10:47:15;;;;;;;3.50;1.40;;;;;;;;;;5072900;28;25005;-85
2021/05/24 10:50:06;;;;;;;2.28;1.52;;;;;;;;;;5060250;28;20191;-85
2021/05/24 10:52:39;;;;;;;5.57;1.30;;;;;;;;;;5063454;28;20240;-88
2021/05/24 10:55:23;;;;;;;3.08;1.50;;;;;;;;;;5057895;28;20249;-86
2021/05/24 10:58:10;;;;;;;2.70;1.20;;;;;;;;;;5057815;28;20201;-87
2021/05/24 11:00:59;;;;;;;1.20;1.00;;;;;;;;;;5065366;28;20184;-86
2021/05/24 11:03:25;;;;;;;1.63;1.15;;;;;;;;;;5056060;28;20208;-85
2021/05/24 11:06:09;;;;;;;2.15;1.95;;;;;;;;;;5062793;28;20222;-85
2021/05/24 11:08:38;;;;;;;2.58;1.45;;;;;;;;;;5062856;28;20176;-86
2021/05/24 11:11:18;;;;;;;3.03;1.25;;;;;;;;;;5061598;28;20217;-85
2021/05/24 11:13:53;;;;;;;2.17;1.20;;;;;;;;;;5058737;28;20191;-87
2021/05/24 11:16:19;;;;;;;4.03;1.33;;;;;;;;;;5063711;28;20203;-86
2021/05/24 11:18:46;;;;;;;2.70;1.58;;;;;;;;;;5081643;28;20232;-89
2021/05/24 11:21:12;;;;;;;3.45;1.40;;;;;;;;;;5062828;28;20225;-85
2021/05/24 11:26:18;;;;;;;4.13;2.17;;;;;;;;;;5062141;28;20431;-86
2021/05/24 11:28:52;;;;;;;2.92;1.30;;;;;;;;;;5079186;28;20180;-85
2021/05/24 11:31:21;;;;;;;3.88;1.70;;;;;;;;;;5062329;28;20173;-85
2021/05/24 11:33:52;;;;;;;3.40;1.52;;;;;;;;;;5062242;28;20189;-87
2021/05/24 11:36:42;;;;;;;3.00;1.70;;;;;;;;;;5062008;28;20451;-85
2021/05/24 11:39:12;;;;;;;4.43;1.90;;;;;;;;;;5061571;28;20693;-82
2021/05/24 11:41:55;;;;;;;2.65;1.60;;;;;;;;;;5072236;28;20650;-82
2021/05/24 11:44:22;;;;;;;6.15;1.80;;;;;;;;;;5063040;28;20239;-83
2021/05/24 11:46:50;;;;;;;4.13;1.73;;;;;;;;;;5076399;28;20237;-85
2021/05/24 11:49:18;;;;;;;9.45;1.55;;;;;;;;;;5066247;28;20181;-86
2021/05/24 11:51:44;;;;;;;3.90;1.83;;;;;;;;;;5060771;28;20253;-86
2021/05/24 11:54:15;;;;;;;3.15;1.50;;;;;;;;;;5066190;28;20196;-85
2021/05/24 11:56:45;;;;;;;7.80;1.95;;;;;;;;;;5066872;28;20178;-82
2021/05/24 11:59:12;;;;;;;5.15;1.63;;;;;;;;;;5081159;28;20701;-83
2021/05/24 12:01:39;;;;;;;8.07;2.10;;;;;;;;;;5065067;28;20177;-83
2021/05/24 12:04:06;;;;;;;6.68;2.00;;;;;;;;;;5060637;28;20189;-82
2021/05/24 12:06:39;;;;;;;9.80;1.80;;;;;;;;;;5060393;28;20192;-82
2021/05/24 12:09:06;;;;;;;2.63;1.67;;;;;;;;;;5062872;28;20189;-84
2021/05/24 12:11:33;;;;;;;5.38;1.70;;;;;;;;;;5062179;28;20231;-83
2021/05/24 12:14:00;;;;;;;3.58;1.88;;;;;;;;;;5073525;28;20211;-85
2021/05/24 12:16:26;;;;;;;3.85;1.63;;;;;;;;;;5063955;28;20169;-85
2021/05/24 12:18:53;;;;;;;5.30;2.55;;;;;;;;;;5058483;28;20240;-82
2021/05/24 12:21:33;;;;;;;5.90;1.70;;;;;;;;;;5060211;28;20210;-86
2021/05/24 12:24:00;;;;;;;6.35;1.80;;;;;;;;;;5053386;28;20269;-88
2021/05/24 12:26:26;;;;;;;7.32;2.50;;;;;;;;;;5061624;28;20181;-83
2021/05/24 12:28:52;;;;;;;3.92;1.67;;;;;;;;;;5064392;28;20264;-86
2021/05/24 12:31:19;;;;;;;5.70;2.67;;;;;;;;;;5059804;28;20161;-88
2021/05/24 12:33:46;;;;;;;5.93;1.90;;;;;;;;;;5060168;28;20603;-85
2021/05/24 12:36:14;;;;;;;5.85;2.40;;;;;;;;;;5060329;28;20343;-83
2021/05/24 12:38:46;;;;;;;3.85;2.15;;;;;;;;;;5064131;28;20209;-89
2021/05/24 12:41:14;;;;;;;8.70;1.90;;;;;;;;;;5072653;28;20220;-91
2021/05/24 12:43:49;;;;;;;3.92;2.15;;;;;;;;;;5061693;28;20173;-86
2021/05/24 12:46:16;;;;;;;2.30;1.70;;;;;;;;;;5064557;28;20642;-88
2021/05/24 12:48:43;;;;;;;3.05;1.20;;;;;;;;;;5060103;28;20216;-84
2021/05/24 12:51:16;;;;;;;3.05;1.63;;;;;;;;;;5063896;28;20196;-89
2021/05/24 12:53:51;;;;;;;4.70;1.67;;;;;;;;;;5064398;28;20192;-86
2021/05/24 12:56:17;;;;;;;4.70;1.55;;;;;;;;;;5059815;28;20184;-84
2021/05/24 12:58:43;;;;;;;1.92;1.50;;;;;;;;;;5085178;28;20711;-86
2021/05/24 13:01:09;;;;;;;2.53;1.20;;;;;;;;;;5060799;28;20181;-84
2021/05/24 13:03:44;;;;;;;5.07;1.50;;;;;;;;;;5058684;28;20428;-87
2021/05/24 13:06:11;;;;;;;3.25;1.45;;;;;;;;;;5063835;28;20181;-86
2021/05/24 13:08:47;;;;;;;4.50;1.40;;;;;;;;;;5064163;28;20184;-84
2021/05/24 13:11:13;;;;;;;3.20;1.27;;;;;;;;;;4573994;28;13670071;-85
2021/05/24 13:13:39;;;;;;;2.13;1.55;;;;;;;;;;5076902;28;20204;-86
2021/05/24 13:16:18;;;;;;;2.15;1.10;;;;;;;;;;5060709;28;20181;-86
2021/05/24 13:19:09;;;;;;;4.05;1.33;;;;;;;;;;5059765;28;20252;-85
2021/05/24 13:30:31;;;;;;;2.75;1.08;;;;;;;;;;5049191;28;20181;-82
2021/05/24 13:32:57;;;;;;;2.42;1.38;;;;;;;;;;5078354;28;20260;-84
2021/05/24 13:35:23;;;;;;;2.17;1.17;;;;;;;;;;5072443;28;20230;-83
2021/05/24 13:37:49;;;;;;;6.77;3.00;;;;;;;;;;5076912;28;20242;-86
2021/05/24 13:40:16;;;;;;;2.15;1.20;;;;;;;;;;5058489;28;20419;-82
2021/05/24 13:42:43;;;;;;;6.60;1.20;;;;;;;;;;5058598;28;20269;-81
2021/05/24 13:45:10;;;;;;;1.40;0.90;;;;;;;;;;5064330;28;20240;-84
2021/05/24 13:47:36;;;;;;;3.55;1.50;;;;;;;;;;5064196;28;20248;-85
2021/05/24 13:50:02;;;;;;;4.18;1.10;;;;;;;;;;5064390;28;20199;-85
2021/05/24 13:52:28;;;;;;;4.50;1.80;;;;;;;;;;5063555;28;20207;-84
2021/05/24 13:54:54;;;;;;;7.28;1.60;;;;;;;;;;5059996;28;20181;-85
2021/05/24 13:57:20;;;;;;;3.05;1.92;;;;;;;;;;5059543;28;20192;-82
2021/05/24 13:59:46;;;;;;;3.17;1.43;;;;;;;;;;5063831;28;20193;-83
2021/05/24 14:02:12;;;;;;;1.67;1.33;;;;;;;;;;5073395;28;20960;-84
2021/05/24 14:04:38;;;;;;;3.90;1.23;;;;;;;;;;5063535;28;20424;-82
2021/05/24 14:07:04;;;;;;;3.23;1.30;;;;;;;;;;5058603;28;20264;-82
2021/05/24 14:09:30;;;;;;;4.82;1.42;;;;;;;;;;5057697;28;20451;-80
2021/05/24 14:11:56;;;;;;;2.20;0.90;;;;;;;;;;5063207;28;20232;-84
2021/05/24 14:14:22;;;;;;;3.10;1.20;;;;;;;;;;5079032;28;20952;-81
2021/05/24 14:16:48;;;;;;;2.55;0.93;;;;;;;;;;5073750;28;20204;-85
2021/05/24 14:19:14;;;;;;;2.80;1.40;;;;;;;;;;5063172;28;20208;-86
2021/05/24 14:21:40;;;;;;;3.37;0.97;;;;;;;;;;5058654;28;20463;-81
2021/05/24 14:24:07;;;;;;;7.10;1.33;;;;;;;;;;5056016;28;20530;-87
2021/05/24 14:26:33;;;;;;;1.45;0.85;;;;;;;;;;5073286;28;20245;-84
2021/05/24 14:28:59;;;;;;;2.58;1.10;;;;;;;;;;5063214;28;20185;-81
2021/05/24 14:31:25;;;;;;;1.52;0.80;;;;;;;;;;5062586;28;20177;-86
2021/05/24 14:33:51;;;;;;;3.10;1.10;;;;;;;;;;5058447;28;20178;-83
2021/05/24 14:36:17;;;;;;;2.10;0.80;;;;;;;;;;5058962;28;20220;-80
2021/05/24 14:38:43;;;;;;;2.40;0.70;;;;;;;;;;5063015;28;20193;-83
2021/05/24 14:41:09;;;;;;;8.10;2.45;;;;;;;;;;5070576;28;20584;-80
2021/05/24 14:43:35;;;;;;;2.00;0.90;;;;;;;;;;5062506;28;20181;-81
2021/05/24 14:46:02;;;;;;;1.20;0.90;;;;;;;;;;5057373;28;20431;-80
2021/05/24 14:48:28;;;;;;;2.47;1.05;;;;;;;;;;5057700;28;20177;-86
2021/05/24 14:50:56;;;;;;;1.00;0.90;;;;;;;;;;5067401;28;20185;-82
2021/05/24 14:53:26;;;;;;;1.90;1.55;;;;;;;;;;5073679;28;20200;-84
2021/05/24 14:55:52;;;;;;;1.05;0.82;;;;;;;;;;5062891;28;20173;-81
2021/05/24 14:58:18;;;;;;;2.60;1.13;;;;;;;;;;5058251;28;20235;-79